FDX205 PANC-UHMA
Flight info
| Callsign | FDX205 |
|---|---|
| Flight time | 2h 10m |
| Altitude | 38000 |
| Route | TED J111 MCG H222 VALDA/K0863F380 N222 GETKA |
| Aircraft | A339/H-SADE1E2E3GHIJ3J5M1P2RWXY/LB2D1 |
Departure
| Time | 2026-04-26 13:22 |
|---|---|
| Airport | Ted Stevens Anchorage International Airport (PANC) |
Arrival
| Time | 2026-04-26 15:32 |
|---|---|
| Airport | Ugolny Yuri Ryktheu Airport (UHMA) |
| Time | Latitude | Longitude | Altitude | Speed | Heading |
|---|---|---|---|---|---|
| 2026-04-26 13:02 | 61.19268 | -150.00179 | 139 ft | 0 kts | 86° |
| 2026-04-26 13:11 | 61.19268 | -150.00183 | 139 ft | 1 kts | 88° |
| 2026-04-26 13:12 | 61.19267 | -150.00196 | 139 ft | 1 kts | 93° |
| 2026-04-26 13:12 | 61.19267 | -150.00208 | 140 ft | 1 kts | 99° |
| 2026-04-26 13:12 | 61.19268 | -150.00222 | 140 ft | 1 kts | 105° |
| 2026-04-26 13:12 | 61.19270 | -150.00242 | 141 ft | 2 kts | 110° |
| 2026-04-26 13:13 | 61.19274 | -150.00263 | 141 ft | 2 kts | 116° |
| 2026-04-26 13:13 | 61.19281 | -150.00292 | 142 ft | 3 kts | 122° |
| 2026-04-26 13:13 | 61.19289 | -150.00320 | 147 ft | 2 kts | 126° |
| 2026-04-26 13:13 | 61.19297 | -150.00343 | 146 ft | 2 kts | 135° |
| 2026-04-26 13:14 | 61.19306 | -150.00365 | 140 ft | 2 kts | 162° |
| 2026-04-26 13:14 | 61.19310 | -150.00369 | 142 ft | 0 kts | 172° |
| 2026-04-26 13:18 | 61.19298 | -150.00365 | 147 ft | 6 kts | 171° |
| 2026-04-26 13:18 | 61.19130 | -150.00516 | 150 ft | 16 kts | 248° |
| 2026-04-26 13:19 | 61.19010 | -150.00567 | 151 ft | 24 kts | 163° |
| 2026-04-26 13:19 | 61.18819 | -150.00462 | 153 ft | 33 kts | 164° |
| 2026-04-26 13:19 | 61.18564 | -150.00320 | 148 ft | 43 kts | 165° |
| 2026-04-26 13:19 | 61.18262 | -150.00150 | 147 ft | 47 kts | 164° |
| 2026-04-26 13:20 | 61.17938 | -149.99970 | 139 ft | 51 kts | 165° |
| 2026-04-26 13:20 | 61.17598 | -149.99777 | 139 ft | 49 kts | 165° |
| 2026-04-26 13:20 | 61.17280 | -149.99601 | 137 ft | 44 kts | 165° |
| 2026-04-26 13:20 | 61.17132 | -149.99626 | 136 ft | 10 kts | 247° |
| 2026-04-26 13:21 | 61.17132 | -149.99822 | 135 ft | 14 kts | 288° |
| 2026-04-26 13:21 | 61.17182 | -149.99893 | 138 ft | 0 kts | 339° |
| 2026-04-26 13:21 | 61.17183 | -149.99894 | 138 ft | 2 kts | 339° |
| 2026-04-26 13:22 | 61.17378 | -150.00006 | 146 ft | 69 kts | 345° |
| 2026-04-26 13:22 | 61.18102 | -150.00415 | 147 ft | 143 kts | 345° |
| 2026-04-26 13:22 | 61.19180 | -150.01033 | 373 ft | 168 kts | 345° |
| 2026-04-26 13:22 | 61.20359 | -150.01702 | 935 ft | 185 kts | 345° |
| 2026-04-26 13:23 | 61.21629 | -150.02657 | 1555 ft | 203 kts | 333° |
| 2026-04-26 13:23 | 61.22798 | -150.04454 | 2202 ft | 216 kts | 316° |
| 2026-04-26 13:23 | 61.23810 | -150.06817 | 2903 ft | 224 kts | 307° |
| 2026-04-26 13:23 | 61.24650 | -150.09618 | 3548 ft | 232 kts | 295° |
| 2026-04-26 13:24 | 61.25320 | -150.12753 | 4074 ft | 246 kts | 296° |
| 2026-04-26 13:24 | 61.26252 | -150.15904 | 4423 ft | 265 kts | 304° |
| 2026-04-26 13:24 | 61.27361 | -150.19022 | 5026 ft | 270 kts | 306° |
| 2026-04-26 13:24 | 61.28507 | -150.22142 | 5716 ft | 272 kts | 306° |
| 2026-04-26 13:25 | 61.29648 | -150.25311 | 6402 ft | 275 kts | 305° |
| 2026-04-26 13:25 | 61.30782 | -150.28547 | 7039 ft | 279 kts | 304° |
| 2026-04-26 13:25 | 61.31905 | -150.31813 | 7666 ft | 283 kts | 304° |
| 2026-04-26 13:25 | 61.33048 | -150.35177 | 8315 ft | 287 kts | 304° |
| 2026-04-26 13:26 | 61.34205 | -150.38597 | 8943 ft | 291 kts | 304° |
| 2026-04-26 13:26 | 61.35380 | -150.42070 | 9612 ft | 295 kts | 304° |
| 2026-04-26 13:26 | 61.36569 | -150.45585 | 10215 ft | 300 kts | 304° |
| 2026-04-26 13:26 | 61.37809 | -150.49257 | 10436 ft | 319 kts | 304° |
| 2026-04-26 13:27 | 61.39121 | -150.53146 | 10625 ft | 337 kts | 304° |
| 2026-04-26 13:27 | 61.40491 | -150.57210 | 11067 ft | 344 kts | 304° |
| 2026-04-26 13:27 | 61.41868 | -150.61300 | 11716 ft | 346 kts | 304° |
| 2026-04-26 13:27 | 61.43254 | -150.65423 | 12364 ft | 347 kts | 304° |
| 2026-04-26 13:28 | 61.44640 | -150.69559 | 13009 ft | 349 kts | 304° |
| 2026-04-26 13:28 | 61.46035 | -150.73731 | 13683 ft | 350 kts | 304° |
| 2026-04-26 13:28 | 61.47430 | -150.77907 | 14293 ft | 351 kts | 304° |
| 2026-04-26 13:28 | 61.48829 | -150.82100 | 14920 ft | 351 kts | 304° |
| 2026-04-26 13:29 | 61.50223 | -150.86289 | 15543 ft | 350 kts | 304° |
| 2026-04-26 13:29 | 61.51143 | -150.89060 | 15948 ft | 351 kts | 304° |
| 2026-04-26 13:29 | 61.53007 | -150.94682 | 16773 ft | 351 kts | 303° |
| 2026-04-26 13:29 | 61.54398 | -150.98884 | 17386 ft | 351 kts | 303° |
| 2026-04-26 13:30 | 61.55791 | -151.03100 | 17985 ft | 352 kts | 303° |
| 2026-04-26 13:30 | 61.57185 | -151.07329 | 18553 ft | 353 kts | 303° |
| 2026-04-26 13:30 | 61.58582 | -151.11573 | 19096 ft | 353 kts | 303° |
| 2026-04-26 13:30 | 61.59977 | -151.15818 | 19624 ft | 354 kts | 303° |
| 2026-04-26 13:31 | 61.61371 | -151.20069 | 20150 ft | 354 kts | 303° |
| 2026-04-26 13:31 | 61.62771 | -151.24344 | 20698 ft | 354 kts | 302° |
| 2026-04-26 13:31 | 61.64167 | -151.28614 | 21239 ft | 355 kts | 302° |
| 2026-04-26 13:31 | 61.65566 | -151.32903 | 21787 ft | 356 kts | 302° |
| 2026-04-26 13:32 | 61.66966 | -151.37206 | 22332 ft | 357 kts | 302° |
| 2026-04-26 13:32 | 61.68369 | -151.41523 | 22876 ft | 357 kts | 302° |
| 2026-04-26 13:32 | 61.69774 | -151.45857 | 23408 ft | 359 kts | 301° |
| 2026-04-26 13:32 | 61.71181 | -151.50204 | 23900 ft | 360 kts | 301° |
| 2026-04-26 13:33 | 61.72596 | -151.54586 | 24292 ft | 362 kts | 301° |
| 2026-04-26 13:33 | 61.74015 | -151.58985 | 24711 ft | 364 kts | 301° |
| 2026-04-26 13:33 | 61.75442 | -151.63420 | 25128 ft | 366 kts | 301° |
| 2026-04-26 13:33 | 61.76874 | -151.67876 | 25541 ft | 368 kts | 301° |
| 2026-04-26 13:34 | 61.78315 | -151.72371 | 25946 ft | 370 kts | 301° |
| 2026-04-26 13:34 | 61.79758 | -151.76881 | 26347 ft | 372 kts | 301° |
| 2026-04-26 13:34 | 61.81209 | -151.81425 | 26758 ft | 374 kts | 301° |
| 2026-04-26 13:34 | 61.82172 | -151.84446 | 27020 ft | 375 kts | 301° |
| 2026-04-26 13:35 | 61.84110 | -151.90538 | 27568 ft | 378 kts | 301° |
| 2026-04-26 13:35 | 61.85599 | -151.95232 | 27974 ft | 380 kts | 301° |
| 2026-04-26 13:35 | 61.87057 | -151.99835 | 28277 ft | 383 kts | 300° |
| 2026-04-26 13:35 | 61.88542 | -152.04535 | 28697 ft | 384 kts | 300° |
| 2026-04-26 13:36 | 61.90032 | -152.09250 | 29075 ft | 386 kts | 300° |
| 2026-04-26 13:36 | 61.91529 | -152.14003 | 29391 ft | 388 kts | 300° |
| 2026-04-26 13:36 | 61.93031 | -152.18782 | 29757 ft | 390 kts | 300° |
| 2026-04-26 13:36 | 61.94540 | -152.23594 | 30108 ft | 392 kts | 300° |
| 2026-04-26 13:37 | 61.96054 | -152.28433 | 30405 ft | 395 kts | 300° |
| 2026-04-26 13:37 | 61.97578 | -152.33316 | 30687 ft | 397 kts | 300° |
| 2026-04-26 13:37 | 61.99109 | -152.38227 | 30981 ft | 400 kts | 300° |
| 2026-04-26 13:37 | 62.00650 | -152.43183 | 31285 ft | 403 kts | 300° |
| 2026-04-26 13:38 | 62.02195 | -152.48161 | 31546 ft | 405 kts | 300° |
| 2026-04-26 13:38 | 62.03755 | -152.53202 | 31834 ft | 408 kts | 300° |
| 2026-04-26 13:38 | 62.05319 | -152.58265 | 32124 ft | 410 kts | 300° |
| 2026-04-26 13:38 | 62.06891 | -152.63365 | 32408 ft | 413 kts | 300° |
| 2026-04-26 13:39 | 62.08470 | -152.68500 | 32651 ft | 415 kts | 300° |
| 2026-04-26 13:39 | 62.10054 | -152.73664 | 32867 ft | 417 kts | 300° |
| 2026-04-26 13:39 | 62.11645 | -152.78862 | 33070 ft | 419 kts | 299° |
| 2026-04-26 13:39 | 62.13245 | -152.84097 | 33187 ft | 422 kts | 299° |
| 2026-04-26 13:40 | 62.14847 | -152.89343 | 33396 ft | 422 kts | 299° |
| 2026-04-26 13:40 | 62.16467 | -152.94600 | 33544 ft | 424 kts | 300° |
| 2026-04-26 13:40 | 62.18108 | -152.99849 | 33735 ft | 424 kts | 300° |
| 2026-04-26 13:40 | 62.19754 | -153.05102 | 33919 ft | 425 kts | 300° |
| 2026-04-26 13:41 | 62.21396 | -153.10361 | 34093 ft | 425 kts | 300° |
| 2026-04-26 13:41 | 62.23038 | -153.15643 | 34274 ft | 426 kts | 300° |
| 2026-04-26 13:41 | 62.24677 | -153.20933 | 34421 ft | 427 kts | 300° |
| 2026-04-26 13:41 | 62.26316 | -153.26241 | 34542 ft | 427 kts | 300° |
| 2026-04-26 13:42 | 62.27959 | -153.31576 | 34684 ft | 428 kts | 300° |
| 2026-04-26 13:42 | 62.29576 | -153.36839 | 34819 ft | 429 kts | 300° |
| 2026-04-26 13:42 | 62.31218 | -153.42198 | 34960 ft | 429 kts | 300° |
| 2026-04-26 13:43 | 62.34500 | -153.52948 | 35204 ft | 430 kts | 300° |
| 2026-04-26 13:43 | 62.37789 | -153.63764 | 35454 ft | 432 kts | 300° |
| 2026-04-26 13:44 | 62.41080 | -153.74638 | 35709 ft | 434 kts | 300° |
| 2026-04-26 13:44 | 62.42726 | -153.80098 | 35861 ft | 435 kts | 300° |
| 2026-04-26 13:44 | 62.44373 | -153.85577 | 35979 ft | 435 kts | 300° |
| 2026-04-26 13:44 | 62.46019 | -153.91067 | 36128 ft | 436 kts | 300° |
| 2026-04-26 13:45 | 62.47666 | -153.96569 | 36252 ft | 436 kts | 299° |
| 2026-04-26 13:45 | 62.49325 | -154.02125 | 36386 ft | 437 kts | 299° |
| 2026-04-26 13:45 | 62.50972 | -154.07658 | 36506 ft | 438 kts | 299° |
| 2026-04-26 13:45 | 62.52621 | -154.13213 | 36644 ft | 438 kts | 299° |
| 2026-04-26 13:46 | 62.54267 | -154.18770 | 36755 ft | 439 kts | 299° |
| 2026-04-26 13:46 | 62.55919 | -154.24356 | 36884 ft | 440 kts | 299° |
| 2026-04-26 13:46 | 62.57570 | -154.29951 | 37009 ft | 440 kts | 299° |
| 2026-04-26 13:46 | 62.59217 | -154.35551 | 37136 ft | 441 kts | 299° |
| 2026-04-26 13:47 | 62.60869 | -154.41178 | 37254 ft | 442 kts | 299° |
| 2026-04-26 13:47 | 62.62518 | -154.46811 | 37376 ft | 443 kts | 299° |
| 2026-04-26 13:47 | 62.64169 | -154.52465 | 37493 ft | 443 kts | 299° |
| 2026-04-26 13:47 | 62.65817 | -154.58124 | 37614 ft | 444 kts | 299° |
| 2026-04-26 13:48 | 62.67468 | -154.63807 | 37723 ft | 444 kts | 299° |
| 2026-04-26 13:48 | 62.68998 | -154.69085 | 37838 ft | 445 kts | 299° |
| 2026-04-26 13:48 | 62.70649 | -154.74794 | 37958 ft | 445 kts | 299° |
| 2026-04-26 13:48 | 62.72296 | -154.80505 | 38074 ft | 446 kts | 299° |
| 2026-04-26 13:49 | 62.73945 | -154.86238 | 38179 ft | 447 kts | 299° |
| 2026-04-26 13:49 | 62.75595 | -154.91988 | 38287 ft | 447 kts | 299° |
| 2026-04-26 13:49 | 62.77222 | -154.97670 | 38409 ft | 448 kts | 299° |
| 2026-04-26 13:49 | 62.78870 | -155.03443 | 38521 ft | 448 kts | 299° |
| 2026-04-26 13:50 | 62.80517 | -155.09225 | 38622 ft | 449 kts | 298° |
| 2026-04-26 13:50 | 62.83811 | -155.20838 | 38797 ft | 449 kts | 298° |
| 2026-04-26 13:51 | 62.87099 | -155.32487 | 38957 ft | 450 kts | 298° |
| 2026-04-26 13:51 | 62.90385 | -155.44187 | 39131 ft | 451 kts | 298° |
| 2026-04-26 13:52 | 62.93601 | -155.56011 | 39283 ft | 450 kts | 295° |
| 2026-04-26 13:52 | 62.95866 | -155.66882 | 39321 ft | 448 kts | 289° |
| 2026-04-26 13:53 | 62.97030 | -155.74155 | 39332 ft | 446 kts | 285° |
| 2026-04-26 13:53 | 62.98975 | -155.87163 | 39449 ft | 448 kts | 286° |
| 2026-04-26 13:54 | 63.00946 | -156.00187 | 39610 ft | 449 kts | 286° |
| 2026-04-26 13:54 | 63.02900 | -156.13271 | 39767 ft | 450 kts | 286° |
| 2026-04-26 13:55 | 63.04837 | -156.26387 | 39925 ft | 451 kts | 285° |
| 2026-04-26 13:55 | 63.05473 | -156.30737 | 39943 ft | 451 kts | 285° |
| 2026-04-26 13:56 | 63.08647 | -156.52618 | 39954 ft | 451 kts | 285° |
| 2026-04-26 13:56 | 63.10541 | -156.65819 | 39939 ft | 451 kts | 285° |
| 2026-04-26 13:57 | 63.12423 | -156.79036 | 39927 ft | 451 kts | 285° |
| 2026-04-26 13:57 | 63.14292 | -156.92265 | 39913 ft | 451 kts | 285° |
| 2026-04-26 13:58 | 63.15586 | -157.01483 | 39904 ft | 452 kts | 285° |
| 2026-04-26 13:58 | 63.17089 | -157.12274 | 39895 ft | 446 kts | 285° |
| 2026-04-26 13:59 | 63.18920 | -157.25483 | 39885 ft | 451 kts | 284° |
| 2026-04-26 13:59 | 63.20751 | -157.38806 | 39879 ft | 452 kts | 284° |
| 2026-04-26 14:00 | 63.24374 | -157.65491 | 39870 ft | 452 kts | 284° |
| 2026-04-26 14:01 | 63.26168 | -157.78875 | 39888 ft | 452 kts | 284° |
| 2026-04-26 14:01 | 63.27951 | -157.92284 | 39919 ft | 453 kts | 284° |
| 2026-04-26 14:02 | 63.29722 | -158.05712 | 39941 ft | 453 kts | 284° |
| 2026-04-26 14:02 | 63.31185 | -158.16890 | 39957 ft | 453 kts | 284° |
| 2026-04-26 14:03 | 63.32933 | -158.30354 | 39966 ft | 453 kts | 283° |
| 2026-04-26 14:03 | 63.34671 | -158.43847 | 39961 ft | 454 kts | 283° |
| 2026-04-26 14:04 | 63.36397 | -158.57369 | 39958 ft | 454 kts | 283° |
| 2026-04-26 14:04 | 63.38110 | -158.70903 | 39954 ft | 454 kts | 283° |
| 2026-04-26 14:05 | 63.39812 | -158.84467 | 39956 ft | 454 kts | 283° |
| 2026-04-26 14:05 | 63.41508 | -158.98106 | 39952 ft | 454 kts | 283° |
| 2026-04-26 14:06 | 63.43175 | -159.11630 | 39950 ft | 455 kts | 283° |
| 2026-04-26 14:06 | 63.44841 | -159.25262 | 39949 ft | 455 kts | 283° |
| 2026-04-26 14:07 | 63.46494 | -159.38919 | 39951 ft | 455 kts | 283° |
| 2026-04-26 14:07 | 63.48135 | -159.52593 | 39948 ft | 455 kts | 282° |
| 2026-04-26 14:08 | 63.49764 | -159.66295 | 39944 ft | 456 kts | 282° |
| 2026-04-26 14:08 | 63.51382 | -159.80026 | 39948 ft | 457 kts | 282° |
| 2026-04-26 14:09 | 63.52995 | -159.93853 | 39940 ft | 461 kts | 282° |
| 2026-04-26 14:09 | 63.54609 | -160.07810 | 39934 ft | 463 kts | 282° |
| 2026-04-26 14:10 | 63.56215 | -160.21835 | 39929 ft | 465 kts | 282° |
| 2026-04-26 14:10 | 63.57813 | -160.35921 | 39932 ft | 466 kts | 282° |
| 2026-04-26 14:11 | 63.60190 | -160.57137 | 39929 ft | 468 kts | 282° |
| 2026-04-26 14:11 | 63.61759 | -160.71321 | 39929 ft | 468 kts | 281° |
| 2026-04-26 14:12 | 63.63319 | -160.85566 | 39912 ft | 468 kts | 281° |
| 2026-04-26 14:12 | 63.64864 | -160.99812 | 39901 ft | 469 kts | 281° |
| 2026-04-26 14:13 | 63.67155 | -161.21214 | 39890 ft | 469 kts | 281° |
| 2026-04-26 14:14 | 63.68667 | -161.35521 | 39883 ft | 469 kts | 281° |
| 2026-04-26 14:14 | 63.70154 | -161.49749 | 39871 ft | 470 kts | 281° |
| 2026-04-26 14:15 | 63.71639 | -161.64100 | 39868 ft | 470 kts | 281° |
| 2026-04-26 14:15 | 63.73109 | -161.78467 | 39863 ft | 470 kts | 280° |
| 2026-04-26 14:16 | 63.74566 | -161.92857 | 39869 ft | 470 kts | 280° |
| 2026-04-26 14:16 | 63.76011 | -162.07278 | 39863 ft | 471 kts | 280° |
| 2026-04-26 14:17 | 63.77440 | -162.21712 | 39857 ft | 471 kts | 280° |
| 2026-04-26 14:17 | 63.78857 | -162.36174 | 39857 ft | 471 kts | 280° |
| 2026-04-26 14:18 | 63.80259 | -162.50656 | 39856 ft | 471 kts | 280° |
| 2026-04-26 14:18 | 63.81649 | -162.65167 | 39854 ft | 472 kts | 279° |
| 2026-04-26 14:19 | 63.83023 | -162.79684 | 39852 ft | 472 kts | 279° |
| 2026-04-26 14:19 | 63.84384 | -162.94235 | 39852 ft | 472 kts | 279° |
| 2026-04-26 14:20 | 63.85731 | -163.08805 | 39850 ft | 472 kts | 279° |
| 2026-04-26 14:20 | 63.87065 | -163.23397 | 39847 ft | 473 kts | 279° |
| 2026-04-26 14:21 | 63.88384 | -163.38009 | 39845 ft | 473 kts | 279° |
| 2026-04-26 14:21 | 63.89689 | -163.52650 | 39848 ft | 473 kts | 279° |
| 2026-04-26 14:22 | 63.90980 | -163.67296 | 39843 ft | 473 kts | 279° |
| 2026-04-26 14:22 | 63.92257 | -163.81983 | 39838 ft | 474 kts | 278° |
| 2026-04-26 14:23 | 63.93520 | -163.96675 | 39836 ft | 474 kts | 278° |
| 2026-04-26 14:23 | 63.94767 | -164.11386 | 39844 ft | 474 kts | 278° |
| 2026-04-26 14:24 | 63.95993 | -164.26016 | 39844 ft | 474 kts | 278° |
| 2026-04-26 14:24 | 63.97214 | -164.40790 | 39844 ft | 474 kts | 278° |
| 2026-04-26 14:25 | 63.98419 | -164.55568 | 39830 ft | 475 kts | 278° |
| 2026-04-26 14:25 | 63.99609 | -164.70354 | 39831 ft | 475 kts | 278° |
| 2026-04-26 14:26 | 64.00785 | -164.85163 | 39827 ft | 475 kts | 277° |
| 2026-04-26 14:26 | 64.01946 | -164.99993 | 39828 ft | 475 kts | 277° |
| 2026-04-26 14:27 | 64.03093 | -165.14847 | 39826 ft | 475 kts | 277° |
| 2026-04-26 14:27 | 64.04225 | -165.29714 | 39824 ft | 476 kts | 277° |
| 2026-04-26 14:28 | 64.05341 | -165.44579 | 39824 ft | 476 kts | 277° |
| 2026-04-26 14:28 | 64.06444 | -165.59493 | 39822 ft | 476 kts | 277° |
| 2026-04-26 14:29 | 64.07537 | -165.74415 | 39819 ft | 476 kts | 277° |
| 2026-04-26 14:29 | 64.08623 | -165.89360 | 39820 ft | 477 kts | 277° |
| 2026-04-26 14:30 | 64.09698 | -166.04330 | 39820 ft | 477 kts | 277° |
| 2026-04-26 14:30 | 64.10693 | -166.19312 | 39818 ft | 476 kts | 275° |
| 2026-04-26 14:31 | 64.11782 | -166.34284 | 39822 ft | 477 kts | 277° |
| 2026-04-26 14:31 | 64.12906 | -166.49159 | 39822 ft | 478 kts | 277° |
| 2026-04-26 14:32 | 64.13989 | -166.64173 | 39815 ft | 478 kts | 277° |
| 2026-04-26 14:32 | 64.15071 | -166.79206 | 39817 ft | 478 kts | 277° |
| 2026-04-26 14:33 | 64.16152 | -166.94246 | 39814 ft | 479 kts | 277° |
| 2026-04-26 14:33 | 64.17213 | -167.09321 | 39816 ft | 479 kts | 276° |
| 2026-04-26 14:34 | 64.18255 | -167.24409 | 39810 ft | 479 kts | 276° |
| 2026-04-26 14:34 | 64.19282 | -167.39523 | 39816 ft | 480 kts | 276° |
| 2026-04-26 14:35 | 64.20294 | -167.54662 | 39825 ft | 480 kts | 276° |
| 2026-04-26 14:35 | 64.21289 | -167.69807 | 39814 ft | 480 kts | 276° |
| 2026-04-26 14:36 | 64.22271 | -167.84980 | 39820 ft | 480 kts | 276° |
| 2026-04-26 14:36 | 64.23237 | -168.00171 | 39812 ft | 481 kts | 276° |
| 2026-04-26 14:37 | 64.24187 | -168.15376 | 39818 ft | 481 kts | 275° |
| 2026-04-26 14:37 | 64.25123 | -168.30601 | 39812 ft | 481 kts | 275° |
| 2026-04-26 14:38 | 64.26042 | -168.45839 | 39817 ft | 481 kts | 275° |
| 2026-04-26 14:38 | 64.26947 | -168.61097 | 39817 ft | 481 kts | 275° |
| 2026-04-26 14:39 | 64.27830 | -168.76271 | 39821 ft | 481 kts | 275° |
| 2026-04-26 14:39 | 64.28708 | -168.91652 | 39820 ft | 482 kts | 275° |
| 2026-04-26 14:40 | 64.29559 | -169.06856 | 39826 ft | 482 kts | 275° |
| 2026-04-26 14:40 | 64.30401 | -169.22178 | 39828 ft | 482 kts | 274° |
| 2026-04-26 14:41 | 64.31228 | -169.37519 | 39826 ft | 483 kts | 274° |
| 2026-04-26 14:41 | 64.32039 | -169.52870 | 39831 ft | 483 kts | 274° |
| 2026-04-26 14:42 | 64.32835 | -169.68254 | 39832 ft | 483 kts | 274° |
| 2026-04-26 14:42 | 64.33614 | -169.83647 | 39832 ft | 483 kts | 274° |
| 2026-04-26 14:43 | 64.34377 | -169.99058 | 39834 ft | 484 kts | 274° |
| 2026-04-26 14:43 | 64.35126 | -170.14489 | 39831 ft | 484 kts | 273° |
| 2026-04-26 14:44 | 64.35858 | -170.29931 | 39833 ft | 484 kts | 273° |
| 2026-04-26 14:44 | 64.36573 | -170.45387 | 39834 ft | 484 kts | 273° |
| 2026-04-26 14:45 | 64.37275 | -170.60861 | 39833 ft | 485 kts | 273° |
| 2026-04-26 14:45 | 64.37960 | -170.76357 | 39841 ft | 485 kts | 273° |
| 2026-04-26 14:46 | 64.38629 | -170.91866 | 39839 ft | 485 kts | 273° |
| 2026-04-26 14:46 | 64.39160 | -171.07393 | 39838 ft | 483 kts | 268° |
| 2026-04-26 14:47 | 64.38832 | -171.22844 | 39841 ft | 481 kts | 262° |
| 2026-04-26 14:47 | 64.38255 | -171.38246 | 39840 ft | 481 kts | 262° |
| 2026-04-26 14:48 | 64.37690 | -171.53665 | 39843 ft | 482 kts | 262° |
| 2026-04-26 14:48 | 64.37098 | -171.69077 | 39844 ft | 482 kts | 262° |
| 2026-04-26 14:49 | 64.36871 | -171.84569 | 39849 ft | 485 kts | 269° |
| 2026-04-26 14:49 | 64.37053 | -172.00134 | 39847 ft | 485 kts | 268° |
| 2026-04-26 14:50 | 64.37174 | -172.13075 | 39846 ft | 485 kts | 268° |
| 2026-04-26 14:50 | 64.37318 | -172.31185 | 39847 ft | 485 kts | 268° |
| 2026-04-26 14:51 | 64.37408 | -172.44244 | 39846 ft | 486 kts | 268° |
| 2026-04-26 14:51 | 64.37502 | -172.59857 | 39847 ft | 486 kts | 268° |
| 2026-04-26 14:52 | 64.37578 | -172.75465 | 39847 ft | 486 kts | 267° |
| 2026-04-26 14:52 | 64.37637 | -172.91094 | 39841 ft | 486 kts | 267° |
| 2026-04-26 14:53 | 64.37680 | -173.06719 | 39842 ft | 486 kts | 267° |
| 2026-04-26 14:53 | 64.37705 | -173.22338 | 39831 ft | 487 kts | 267° |
| 2026-04-26 14:54 | 64.37738 | -173.37976 | 39826 ft | 487 kts | 267° |
| 2026-04-26 14:54 | 64.37779 | -173.53621 | 39829 ft | 487 kts | 267° |
| 2026-04-26 14:55 | 64.37798 | -173.69273 | 39833 ft | 487 kts | 267° |
| 2026-04-26 14:55 | 64.37799 | -173.84939 | 39829 ft | 488 kts | 266° |
| 2026-04-26 14:56 | 64.37781 | -174.00603 | 39827 ft | 487 kts | 266° |
| 2026-04-26 14:56 | 64.37745 | -174.16264 | 39826 ft | 488 kts | 266° |
| 2026-04-26 14:57 | 64.37695 | -174.31925 | 39831 ft | 488 kts | 266° |
| 2026-04-26 14:57 | 64.37922 | -174.47599 | 39831 ft | 491 kts | 275° |
| 2026-04-26 14:58 | 64.39051 | -174.63065 | 39830 ft | 492 kts | 277° |
| 2026-04-26 14:58 | 64.40182 | -174.78653 | 39833 ft | 492 kts | 277° |
| 2026-04-26 14:59 | 64.41292 | -174.94256 | 39837 ft | 492 kts | 277° |
| 2026-04-26 14:59 | 64.42381 | -175.09881 | 39840 ft | 492 kts | 276° |
| 2026-04-26 15:00 | 64.43453 | -175.25526 | 39839 ft | 492 kts | 276° |
| 2026-04-26 15:00 | 64.44508 | -175.41180 | 39841 ft | 492 kts | 276° |
| 2026-04-26 15:01 | 64.45546 | -175.56837 | 39830 ft | 492 kts | 276° |
| 2026-04-26 15:01 | 64.46569 | -175.72521 | 39833 ft | 492 kts | 276° |
| 2026-04-26 15:02 | 64.47574 | -175.88220 | 39822 ft | 492 kts | 276° |
| 2026-04-26 15:02 | 64.48564 | -176.03956 | 39831 ft | 493 kts | 276° |
| 2026-04-26 15:03 | 64.49539 | -176.19712 | 39853 ft | 493 kts | 276° |
| 2026-04-26 15:03 | 64.50497 | -176.35476 | 39846 ft | 493 kts | 275° |
| 2026-04-26 15:04 | 64.51438 | -176.51249 | 39858 ft | 493 kts | 275° |
| 2026-04-26 15:04 | 64.52361 | -176.67028 | 39857 ft | 493 kts | 275° |
| 2026-04-26 15:05 | 64.53268 | -176.82839 | 39864 ft | 494 kts | 275° |
| 2026-04-26 15:05 | 64.54156 | -176.98550 | 39867 ft | 494 kts | 275° |
| 2026-04-26 15:06 | 64.55031 | -177.14383 | 39871 ft | 494 kts | 274° |
| 2026-04-26 15:06 | 64.55888 | -177.30276 | 39877 ft | 494 kts | 274° |
| 2026-04-26 15:07 | 64.57142 | -177.54101 | 39879 ft | 495 kts | 274° |
| 2026-04-26 15:07 | 64.57957 | -177.70012 | 39877 ft | 495 kts | 274° |
| 2026-04-26 15:08 | 64.58761 | -177.85920 | 39881 ft | 495 kts | 274° |
| 2026-04-26 15:08 | 64.59537 | -178.01762 | 39880 ft | 496 kts | 274° |
| 2026-04-26 15:09 | 64.60299 | -178.17714 | 39881 ft | 496 kts | 274° |
| 2026-04-26 15:09 | 64.61053 | -178.33697 | 39884 ft | 496 kts | 273° |
| 2026-04-26 15:10 | 64.61672 | -178.47092 | 39883 ft | 496 kts | 274° |
| 2026-04-26 15:10 | 64.62174 | -178.57663 | 39745 ft | 494 kts | 274° |
| 2026-04-26 15:10 | 64.62542 | -178.65614 | 39211 ft | 494 kts | 274° |
| 2026-04-26 15:11 | 64.62897 | -178.73571 | 38620 ft | 492 kts | 273° |
| 2026-04-26 15:11 | 64.63243 | -178.81464 | 38052 ft | 486 kts | 273° |
| 2026-04-26 15:11 | 64.63577 | -178.89236 | 37544 ft | 478 kts | 273° |
| 2026-04-26 15:11 | 64.63898 | -178.96905 | 37075 ft | 472 kts | 272° |
| 2026-04-26 15:12 | 64.64209 | -179.04480 | 36647 ft | 466 kts | 272° |
| 2026-04-26 15:12 | 64.64513 | -179.11962 | 36267 ft | 461 kts | 272° |
| 2026-04-26 15:12 | 64.64812 | -179.19368 | 35896 ft | 456 kts | 272° |
| 2026-04-26 15:12 | 64.65102 | -179.26699 | 35520 ft | 451 kts | 272° |
| 2026-04-26 15:13 | 64.65388 | -179.33953 | 35154 ft | 447 kts | 272° |
| 2026-04-26 15:13 | 64.65669 | -179.41132 | 34769 ft | 442 kts | 272° |
| 2026-04-26 15:13 | 64.65943 | -179.48226 | 34416 ft | 437 kts | 272° |
| 2026-04-26 15:13 | 64.66209 | -179.55276 | 34045 ft | 433 kts | 271° |
| 2026-04-26 15:14 | 64.66467 | -179.62239 | 33632 ft | 428 kts | 271° |
| 2026-04-26 15:14 | 64.66720 | -179.69133 | 33188 ft | 424 kts | 271° |
| 2026-04-26 15:14 | 64.66968 | -179.75950 | 32746 ft | 420 kts | 271° |
| 2026-04-26 15:14 | 64.67213 | -179.82718 | 32307 ft | 416 kts | 271° |
| 2026-04-26 15:15 | 64.67452 | -179.89396 | 31885 ft | 411 kts | 271° |
| 2026-04-26 15:15 | 64.67687 | -179.96024 | 31451 ft | 407 kts | 271° |
| 2026-04-26 15:15 | 64.67920 | 179.97416 | 31058 ft | 403 kts | 271° |
| 2026-04-26 15:15 | 64.68147 | 179.90931 | 30638 ft | 399 kts | 270° |
| 2026-04-26 15:16 | 64.68292 | 179.84498 | 30217 ft | 394 kts | 269° |
| 2026-04-26 15:16 | 64.68462 | 179.78140 | 29798 ft | 391 kts | 270° |
| 2026-04-26 15:16 | 64.68675 | 179.71835 | 29302 ft | 387 kts | 271° |
| 2026-04-26 15:16 | 64.68884 | 179.65663 | 28816 ft | 384 kts | 270° |
| 2026-04-26 15:17 | 64.69083 | 179.59471 | 28315 ft | 381 kts | 270° |
| 2026-04-26 15:17 | 64.69210 | 179.55311 | 27930 ft | 379 kts | 270° |
| 2026-04-26 15:17 | 64.69448 | 179.47135 | 26761 ft | 377 kts | 270° |
| 2026-04-26 15:17 | 64.69617 | 179.41102 | 25876 ft | 377 kts | 270° |
| 2026-04-26 15:18 | 64.69714 | 179.35008 | 24994 ft | 373 kts | 263° |
| 2026-04-26 15:18 | 64.69195 | 179.29156 | 24150 ft | 366 kts | 248° |
| 2026-04-26 15:18 | 64.68268 | 179.23645 | 23388 ft | 362 kts | 246° |
| 2026-04-26 15:18 | 64.67341 | 179.18328 | 23024 ft | 345 kts | 246° |
| 2026-04-26 15:19 | 64.66456 | 179.13215 | 22370 ft | 336 kts | 246° |
| 2026-04-26 15:19 | 64.65588 | 179.08152 | 21469 ft | 337 kts | 246° |
| 2026-04-26 15:19 | 64.64722 | 179.03055 | 20530 ft | 339 kts | 246° |
| 2026-04-26 15:19 | 64.63856 | 178.97917 | 19666 ft | 342 kts | 246° |
| 2026-04-26 15:20 | 64.62982 | 178.92728 | 18780 ft | 344 kts | 246° |
| 2026-04-26 15:20 | 64.62098 | 178.87531 | 17880 ft | 346 kts | 245° |
| 2026-04-26 15:20 | 64.61208 | 178.82320 | 16917 ft | 347 kts | 246° |
| 2026-04-26 15:20 | 64.60312 | 178.77085 | 15987 ft | 348 kts | 245° |
| 2026-04-26 15:21 | 64.59410 | 178.71843 | 15063 ft | 349 kts | 246° |
| 2026-04-26 15:21 | 64.58506 | 178.66598 | 14181 ft | 349 kts | 246° |
| 2026-04-26 15:21 | 64.57606 | 178.61358 | 13265 ft | 349 kts | 246° |
| 2026-04-26 15:21 | 64.56841 | 178.56022 | 12304 ft | 348 kts | 256° |
| 2026-04-26 15:22 | 64.56338 | 178.50532 | 11369 ft | 346 kts | 257° |
| 2026-04-26 15:22 | 64.55841 | 178.45063 | 10464 ft | 344 kts | 257° |
| 2026-04-26 15:22 | 64.55340 | 178.39650 | 9551 ft | 341 kts | 257° |
| 2026-04-26 15:22 | 64.54833 | 178.34276 | 8584 ft | 338 kts | 257° |
| 2026-04-26 15:23 | 64.54326 | 178.28965 | 7639 ft | 335 kts | 257° |
| 2026-04-26 15:23 | 64.53822 | 178.23714 | 6727 ft | 331 kts | 257° |
| 2026-04-26 15:23 | 64.53320 | 178.18533 | 5788 ft | 327 kts | 257° |
| 2026-04-26 15:23 | 64.52825 | 178.13424 | 4872 ft | 322 kts | 257° |
| 2026-04-26 15:24 | 64.52352 | 178.08574 | 4708 ft | 293 kts | 257° |
| 2026-04-26 15:24 | 64.51928 | 178.04240 | 4540 ft | 267 kts | 257° |
| 2026-04-26 15:24 | 64.51527 | 178.00152 | 4220 ft | 249 kts | 257° |
| 2026-04-26 15:24 | 64.51164 | 177.96471 | 4094 ft | 223 kts | 257° |
| 2026-04-26 15:25 | 64.50820 | 177.92972 | 4057 ft | 219 kts | 257° |
| 2026-04-26 15:25 | 64.50592 | 177.90658 | 4023 ft | 216 kts | 257° |
| 2026-04-26 15:25 | 64.50146 | 177.86141 | 4015 ft | 216 kts | 257° |
| 2026-04-26 15:25 | 64.50009 | 177.82710 | 3905 ft | 212 kts | 277° |
| 2026-04-26 15:26 | 64.50341 | 177.79428 | 3571 ft | 208 kts | 289° |
| 2026-04-26 15:26 | 64.50753 | 177.76214 | 3102 ft | 207 kts | 289° |
| 2026-04-26 15:26 | 64.51144 | 177.73058 | 2832 ft | 199 kts | 289° |
| 2026-04-26 15:26 | 64.51530 | 177.69837 | 2727 ft | 208 kts | 288° |
| 2026-04-26 15:27 | 64.51923 | 177.66613 | 2616 ft | 206 kts | 293° |
| 2026-04-26 15:27 | 64.52760 | 177.64047 | 2613 ft | 199 kts | 330° |
| 2026-04-26 15:27 | 64.54008 | 177.63034 | 2607 ft | 182 kts | 0° |
| 2026-04-26 15:27 | 64.55187 | 177.63136 | 2619 ft | 165 kts | 14° |
| 2026-04-26 15:28 | 64.56274 | 177.63653 | 2610 ft | 153 kts | 20° |
| 2026-04-26 15:28 | 64.57306 | 177.64255 | 2607 ft | 153 kts | 20° |
| 2026-04-26 15:28 | 64.58338 | 177.64870 | 2609 ft | 153 kts | 21° |
| 2026-04-26 15:28 | 64.59368 | 177.65498 | 2608 ft | 153 kts | 20° |
| 2026-04-26 15:29 | 64.60397 | 177.66124 | 2605 ft | 153 kts | 20° |
| 2026-04-26 15:29 | 64.61435 | 177.66759 | 2441 ft | 154 kts | 21° |
| 2026-04-26 15:29 | 64.63458 | 177.67995 | 2009 ft | 148 kts | 21° |
| 2026-04-26 15:30 | 64.65428 | 177.69208 | 1583 ft | 144 kts | 21° |
| 2026-04-26 15:30 | 64.66394 | 177.69816 | 1378 ft | 144 kts | 21° |
| 2026-04-26 15:30 | 64.67382 | 177.70427 | 1181 ft | 149 kts | 19° |
| 2026-04-26 15:31 | 64.68386 | 177.70998 | 945 ft | 150 kts | 18° |
| 2026-04-26 15:31 | 64.70379 | 177.72243 | 487 ft | 145 kts | 15° |
| 2026-04-26 15:31 | 64.71397 | 177.72860 | 309 ft | 151 kts | 14° |
| 2026-04-26 15:32 | 64.72693 | 177.73659 | 169 ft | 129 kts | 15° |
| 2026-04-26 15:32 | 64.73750 | 177.74301 | 202 ft | 74 kts | 14° |
| 2026-04-26 15:32 | 64.74170 | 177.74555 | 208 ft | 32 kts | 5° |
| 2026-04-26 15:33 | 64.74259 | 177.74356 | 195 ft | 22 kts | 289° |
| 2026-04-26 15:33 | 64.74235 | 177.74086 | 200 ft | 18 kts | 201° |
| 2026-04-26 15:33 | 64.74061 | 177.73962 | 200 ft | 35 kts | 195° |
| 2026-04-26 15:33 | 64.73768 | 177.73777 | 197 ft | 50 kts | 195° |
| 2026-04-26 15:34 | 64.73431 | 177.73569 | 181 ft | 50 kts | 194° |
| 2026-04-26 15:34 | 64.73087 | 177.73358 | 175 ft | 51 kts | 194° |
| 2026-04-26 15:34 | 64.72745 | 177.73144 | 169 ft | 50 kts | 195° |
| 2026-04-26 15:34 | 64.72401 | 177.72928 | 163 ft | 50 kts | 195° |
| 2026-04-26 15:35 | 64.72136 | 177.72886 | 159 ft | 31 kts | 144° |
| 2026-04-26 15:35 | 64.71973 | 177.73231 | 159 ft | 33 kts | 133° |
| 2026-04-26 15:35 | 64.71770 | 177.73494 | 156 ft | 32 kts | 153° |
| 2026-04-26 15:35 | 64.71626 | 177.73758 | 156 ft | 24 kts | 140° |
| 2026-04-26 15:36 | 64.71500 | 177.73731 | 156 ft | 18 kts | 213° |
| 2026-04-26 15:36 | 64.71420 | 177.73714 | 156 ft | 7 kts | 178° |
| 2026-04-26 15:36 | 64.71412 | 177.73711 | 156 ft | 2 kts | 185° |
| 2026-04-26 15:36 | 64.71405 | 177.73708 | 156 ft | 0 kts | 188° |